Time;durP1;ratioP1;P1;durP2;ratioP2;P2;SDS_P1;SDS_P2;PMS_P1;PMS_P2;Temp;Humidity;BMP_temperature;BMP_pressure;BME280_temperature;BME280_humidity;BME280_pressure;Samples;Min_cycle;Max_cycle;Signal;HPM_P1;HPM_P2
2021/11/01 00:01:25;;;;;;;;;;;;;;;10.79;100.00;95697.66;5055497;28;19924;-85
2021/11/01 00:03:53;;;;;;;;;;;;;;;10.76;100.00;95698.66;5074334;28;20409;-85
2021/11/01 00:06:20;;;;;;;;;;;;;;;10.41;100.00;95670.41;5057618;28;19931;-85
2021/11/01 00:08:47;;;;;;;;;;;;;;;10.97;100.00;95705.56;5073997;28;20339;-85
2021/11/01 00:11:14;;;;;;;;;;;;;;;10.61;100.00;95706.50;5074352;28;19924;-85
2021/11/01 00:13:42;;;;;;;;;;;;;;;10.69;100.00;95705.50;5074182;28;20302;-85
2021/11/01 00:16:10;;;;;;;;;;;;;;;10.85;100.00;95726.34;5057946;28;19977;-85
2021/11/01 00:18:39;;;;;;;;;;;;;;;11.02;100.00;95721.56;5074249;28;19924;-84
2021/11/01 00:21:07;;;;;;;;;;;;;;;11.01;100.00;95731.22;5057250;28;20358;-85
2021/11/01 00:23:35;;;;;;;;;;;;;;;11.27;100.00;95731.00;5065301;28;19924;-84
2021/11/01 00:26:02;;;;;;;;;;;;;;;11.36;100.00;95728.69;5060208;28;20343;-85
2021/11/01 00:28:29;;;;;;;;;;;;;;;11.46;100.00;95732.00;5095945;28;20354;-85
2021/11/01 00:30:57;;;;;;;;;;;;;;;11.26;100.00;95735.81;5077747;28;20332;-85
2021/11/01 00:33:26;;;;;;;;;;;;;;;10.94;100.00;95729.69;5061119;28;20369;-85
2021/11/01 00:35:54;;;;;;;;;;;;;;;11.16;100.00;95737.34;5074104;28;19939;-85
2021/11/01 00:38:21;;;;;;;;;;;;;;;11.07;100.00;95732.00;5047233;28;19924;-85
2021/11/01 00:40:48;;;;;;;;;;;;;;;11.16;100.00;95737.34;5091740;28;19927;-85
2021/11/01 00:43:15;;;;;;;;;;;;;;;11.35;100.00;95738.34;5057779;28;19924;-84
2021/11/01 00:45:42;;;;;;;;;;;;;;;11.28;100.00;95727.69;5105598;28;19924;-84
2021/11/01 00:48:10;;;;;;;;;;;;;;;11.53;100.00;95731.47;5077523;28;19924;-85
2021/11/01 00:50:38;;;;;;;;;;;;;;;11.62;100.00;95734.00;5057234;28;20398;-85
2021/11/01 00:53:06;;;;;;;;;;;;;;;11.74;100.00;95730.72;5094831;28;19924;-85
2021/11/01 00:55:37;;;;;;;;;;;;;;;11.52;100.00;95725.16;5060757;28;20410;-85
2021/11/01 00:58:04;;;;;;;;;;;;;;;11.42;100.00;95726.66;5095331;28;20366;-84
2021/11/01 01:00:31;;;;;;;;;;;;;;;11.36;100.00;95725.91;5076975;28;20265;-85
2021/11/01 01:02:59;;;;;;;;;;;;;;;11.22;100.00;95721.34;5077254;28;20359;-84
2021/11/01 01:05:26;;;;;;;;;;;;;;;11.34;100.00;95714.47;5077456;28;19928;-84
2021/11/01 01:07:54;;;;;;;;;;;;;;;11.34;100.00;95697.72;5060411;28;19963;-84
2021/11/01 01:10:21;;;;;;;;;;;;;;;10.94;100.00;95687.00;5060648;28;20342;-85
2021/11/01 01:12:48;;;;;;;;;;;;;;;11.13;100.00;95690.84;5077452;28;19951;-84
2021/11/01 01:15:20;;;;;;;;;;;;;;;10.92;100.00;95695.13;5076625;28;19925;-85
2021/11/01 01:17:47;;;;;;;;;;;;;;;10.54;100.00;95704.22;5057036;28;19928;-85
2021/11/01 01:20:15;;;;;;;;;;;;;;;10.92;100.00;95695.13;5089474;28;19931;-84
2021/11/01 01:22:43;;;;;;;;;;;;;;;10.56;100.00;95688.47;5056829;28;20214;-84
2021/11/01 01:27:41;;;;;;;;;;;;;;;11.15;100.00;95702.25;5076505;28;20283;-84
2021/11/01 01:30:09;;;;;;;;;;;;;;;10.59;100.00;95700.66;5056538;28;20001;-84
2021/11/01 01:32:36;;;;;;;;;;;;;;;10.56;100.00;95707.25;5058673;28;19963;-85
2021/11/01 01:35:04;;;;;;;;;;;;;;;10.60;100.00;95707.78;5056526;28;19939;-85
2021/11/01 01:37:31;;;;;;;;;;;;;;;10.52;100.00;95718.66;5091405;28;19930;-85
2021/11/01 01:39:58;;;;;;;;;;;;;;;10.76;100.00;95715.41;5094291;28;19928;-85
2021/11/01 01:42:25;;;;;;;;;;;;;;;10.69;100.00;95727.09;5062635;28;19970;-85
2021/11/01 01:44:53;;;;;;;;;;;;;;;10.63;100.00;95731.91;5059846;28;19924;-85
2021/11/01 01:47:20;;;;;;;;;;;;;;;10.58;100.00;95710.31;5076548;28;19934;-85
2021/11/01 01:49:47;;;;;;;;;;;;;;;10.48;100.00;95712.53;5056359;28;19925;-85
2021/11/01 01:52:15;;;;;;;;;;;;;;;10.75;100.00;95728.59;5056377;28;19967;-85
2021/11/01 01:54:42;;;;;;;;;;;;;;;10.71;100.00;95719.72;5074522;28;19967;-85
2021/11/01 01:57:09;;;;;;;;;;;;;;;11.07;100.00;95722.84;5076513;28;19955;-85
2021/11/01 01:59:36;;;;;;;;;;;;;;;11.06;100.00;95722.06;5075987;28;19939;-85
2021/11/01 02:02:04;;;;;;;;;;;;;;;11.20;100.00;95721.06;5076445;28;19935;-85
2021/11/01 02:04:32;;;;;;;;;;;;;;;11.06;100.00;95716.47;5057238;28;19947;-85
2021/11/01 02:07:09;;;;;;;;;;;;;;;11.36;100.00;95717.50;5039694;28;20027;-85
2021/11/01 02:09:44;;;;;;;;;;;;;;;10.86;100.00;95719.50;5089019;28;19924;-85
2021/11/01 02:12:25;;;;;;;;;;;;;;;10.93;100.00;95724.59;5075890;28;19966;-86
2021/11/01 02:15:02;;;;;;;;;;;;;;;11.08;100.00;95729.94;5076080;28;19924;-85
2021/11/01 02:17:29;;;;;;;;;;;;;;;10.64;100.00;95708.28;5093868;28;19924;-85
2021/11/01 02:20:00;;;;;;;;;;;;;;;10.82;100.00;95721.78;5075653;28;19931;-85
2021/11/01 02:22:27;;;;;;;;;;;;;;;10.63;100.00;95737.47;5075918;28;19924;-85
2021/11/01 02:24:56;;;;;;;;;;;;;;;11.15;100.00;95716.22;5039312;28;19928;-85
2021/11/01 02:27:25;;;;;;;;;;;;;;;10.98;100.00;95720.28;5073185;28;19924;-85
2021/11/01 02:29:52;;;;;;;;;;;;;;;10.85;100.00;95712.38;5075786;28;19931;-85
2021/11/01 02:32:20;;;;;;;;;;;;;;;10.97;100.00;95719.53;5069755;28;19931;-85
2021/11/01 02:34:47;;;;;;;;;;;;;;;10.98;100.00;95728.66;5057433;28;20022;-85
2021/11/01 02:37:14;;;;;;;;;;;;;;;10.80;100.00;95727.09;5093068;28;19931;-85
2021/11/01 02:40:00;;;;;;;;;;;;;;;11.26;100.00;95727.44;5075229;28;19951;-85
2021/11/01 02:42:28;;;;;;;;;;;;;;;10.70;100.00;95728.59;5075596;28;19973;-85
2021/11/01 02:44:56;;;;;;;;;;;;;;;10.93;100.00;95728.13;5058482;28;20027;-85
2021/11/01 02:47:24;;;;;;;;;;;;;;;10.98;100.00;95727.38;5075177;28;19998;-85
2021/11/01 02:49:53;;;;;;;;;;;;;;;10.89;100.00;95716.47;5059097;28;19924;-85
2021/11/01 02:52:21;;;;;;;;;;;;;;;10.92;100.00;95723.06;5075730;28;19924;-85
2021/11/01 02:54:49;;;;;;;;;;;;;;;11.00;100.00;95721.28;5075299;28;19928;-85
2021/11/01 02:57:17;;;;;;;;;;;;;;;11.18;100.00;95729.19;5058184;28;20323;-85
2021/11/01 02:59:44;;;;;;;;;;;;;;;10.83;100.00;95726.09;5023053;28;19928;-85
2021/11/01 03:02:12;;;;;;;;;;;;;;;10.74;100.00;95712.34;5075110;28;20303;-85
2021/11/01 03:04:39;;;;;;;;;;;;;;;10.92;100.00;95729.41;5093228;28;19947;-85
2021/11/01 03:07:06;;;;;;;;;;;;;;;11.23;100.00;95717.25;5074793;28;20001;-85
2021/11/01 03:09:36;;;;;;;;;;;;;;;10.83;100.00;95710.09;5054969;28;19935;-85
2021/11/01 03:12:06;;;;;;;;;;;;;;;10.92;100.00;95725.84;5056161;28;20307;-85
2021/11/01 03:14:40;;;;;;;;;;;;;;;11.03;100.00;95723.06;5055148;28;20027;-85
2021/11/01 03:17:09;;;;;;;;;;;;;;;12.25;100.00;95727.28;5052290;28;19932;-85
2021/11/01 03:19:42;;;;;;;;;;;;;;;11.78;100.00;95711.69;5098448;28;20007;-85
2021/11/01 03:22:10;;;;;;;;;;;;;;;11.61;100.00;95705.31;5074889;28;20322;-84
2021/11/01 03:24:39;;;;;;;;;;;;;;;12.14;100.00;95716.16;5074944;28;19924;-85
2021/11/01 03:27:07;;;;;;;;;;;;;;;11.85;100.00;95708.34;5023211;28;20074;-84
2021/11/01 03:29:34;;;;;;;;;;;;;;;12.20;100.00;95711.31;5054658;28;19929;-85
2021/11/01 03:32:03;;;;;;;;;;;;;;;12.44;100.00;95714.25;5086894;28;19924;-85
2021/11/01 03:34:31;;;;;;;;;;;;;;;11.73;100.00;95712.44;5054587;28;19929;-85
2021/11/01 03:37:03;;;;;;;;;;;;;;;11.95;100.00;95712.38;5068085;28;19934;-85
2021/11/01 03:39:31;;;;;;;;;;;;;;;12.39;100.00;95712.25;5060531;28;20005;-84
2021/11/01 03:41:58;;;;;;;;;;;;;;;11.97;100.00;95712.63;5057909;28;19924;-84
2021/11/01 03:44:29;;;;;;;;;;;;;;;12.11;100.00;95725.59;5037700;28;19924;-85
2021/11/01 03:46:59;;;;;;;;;;;;;;;11.76;100.00;95719.81;5098416;28;19939;-85
2021/11/01 03:49:29;;;;;;;;;;;;;;;12.03;100.00;95724.56;5040417;28;20267;-84
2021/11/01 03:54:26;;;;;;;;;;;;;;;11.83;100.00;95722.06;5092259;28;19970;-85
2021/11/01 03:56:54;;;;;;;;;;;;;;;12.09;100.00;95722.53;5058162;28;19924;-84
2021/11/01 03:59:21;;;;;;;;;;;;;;;12.14;100.00;95735.75;5074197;28;20361;-85
2021/11/01 04:01:48;;;;;;;;;;;;;;;11.64;100.00;95737.88;5096273;28;20375;-85
2021/11/01 04:04:15;;;;;;;;;;;;;;;11.85;100.00;95747.50;5096456;28;19924;-85
2021/11/01 04:06:43;;;;;;;;;;;;;;;11.79;100.00;95735.56;5056424;28;19955;-85
2021/11/01 04:09:12;;;;;;;;;;;;;;;11.80;100.00;95748.25;5069566;28;19936;-85
2021/11/01 04:11:43;;;;;;;;;;;;;;;11.69;100.00;95736.34;5077909;28;19931;-85
2021/11/01 04:14:16;;;;;;;;;;;;;;;11.61;100.00;95744.44;5078333;28;19928;-85
2021/11/01 04:16:47;;;;;;;;;;;;;;;12.17;100.00;95745.91;5061564;28;20513;-84
2021/11/01 04:21:43;;;;;;;;;;;;;;;11.57;100.00;95749.53;5077838;28;19928;-84
2021/11/01 04:24:11;;;;;;;;;;;;;;;11.72;100.00;95766.81;5095945;28;19924;-84
2021/11/01 04:26:38;;;;;;;;;;;;;;;12.11;100.00;95761.97;5058758;28;19975;-85
2021/11/01 04:29:07;;;;;;;;;;;;;;;11.69;100.00;95762.25;5077875;28;20405;-84
2021/11/01 04:31:37;;;;;;;;;;;;;;;11.91;100.00;95767.06;5094893;28;19964;-85
2021/11/01 04:34:16;;;;;;;;;;;;;;;11.68;100.00;95755.13;5080859;28;20307;-85
2021/11/01 04:36:44;;;;;;;;;;;;;;;11.67;100.00;95767.59;5057711;28;20023;-84
2021/11/01 04:55:22;;;;;;;;;;;;;;;11.72;100.00;95777.25;5095682;28;20419;-84
2021/11/01 04:57:50;;;;;;;;;;;;;;;11.80;100.00;95781.81;5058907;28;19924;-84
2021/11/01 05:00:17;;;;;;;;;;;;;;;11.90;100.00;95785.91;5057128;28;20085;-85
2021/11/01 05:02:49;;;;;;;;;;;;;;;11.70;100.00;95788.19;5071854;28;19928;-84
2021/11/01 05:05:16;;;;;;;;;;;;;;;11.51;100.00;95773.91;5077347;28;19924;-84
2021/11/01 05:07:45;;;;;;;;;;;;;;;11.67;100.00;95769.63;5077277;28;19928;-84
2021/11/01 05:10:19;;;;;;;;;;;;;;;11.56;100.00;95783.56;5077149;28;20405;-84
2021/11/01 05:12:46;;;;;;;;;;;;;;;11.71;100.00;95768.09;5076896;28;19924;-84
2021/11/01 05:15:25;;;;;;;;;;;;;;;11.95;100.00;95765.53;5057104;28;20399;-85
2021/11/01 05:20:28;;;;;;;;;;;;;;;11.55;100.00;95770.88;5056512;28;19924;-84
2021/11/01 05:23:29;;;;;;;;;;;;;;;11.60;100.00;95765.28;5087310;28;20387;-84
2021/11/01 05:25:46;;;;;;;;;;;;;;;11.64;100.00;95777.00;5073337;28;20395;-84
2021/11/01 05:30:55;;;;;;;;;;;;;;;11.68;100.00;95771.91;5040042;28;20013;-85
2021/11/01 05:35:59;;;;;;;;;;;;;;;11.29;100.00;95776.72;5076525;28;19924;-84
2021/11/01 05:38:27;;;;;;;;;;;;;;;11.28;100.00;95783.56;5076384;28;19924;-84
2021/11/01 05:40:54;;;;;;;;;;;;;;;11.64;100.00;95793.78;5042251;28;20380;-84
2021/11/01 05:43:21;;;;;;;;;;;;;;;11.61;100.00;95789.19;5076612;28;20050;-84
2021/11/01 05:45:49;;;;;;;;;;;;;;;11.94;100.00;95805.97;5095908;28;19967;-84
2021/11/01 05:48:16;;;;;;;;;;;;;;;11.94;100.00;95794.78;5060022;28;20359;-85
2021/11/01 05:50:44;;;;;;;;;;;;;;;11.62;100.00;95784.34;5059954;28;19939;-84
2021/11/01 05:53:13;;;;;;;;;;;;;;;11.41;100.00;95795.00;5076473;28;19930;-84
2021/11/01 05:55:52;;;;;;;;;;;;;;;11.74;100.00;95811.81;5076184;28;19924;-84
2021/11/01 06:06:32;;;;;;;;;;;;;;;11.84;100.00;95813.13;5055834;28;19924;-85
2021/11/01 06:14:12;;;;;;;;;;;;;;;11.77;100.00;95807.28;5094080;28;20355;-84
2021/11/01 06:16:39;;;;;;;;;;;;;;;11.73;100.00;95829.13;5075555;28;19947;-85
2021/11/01 06:19:06;;;;;;;;;;;;;;;11.93;100.00;95820.47;5075646;28;19924;-84
2021/11/01 06:21:34;;;;;;;;;;;;;;;11.95;100.00;95817.94;5059118;28;20046;-84
2021/11/01 06:24:10;;;;;;;;;;;;;;;11.52;100.00;95813.81;5093058;28;19969;-84
2021/11/01 06:26:37;;;;;;;;;;;;;;;11.74;100.00;95819.47;5075619;28;20015;-85
2021/11/01 06:29:08;;;;;;;;;;;;;;;11.63;100.00;95831.38;5075883;28;20005;-84
2021/11/01 06:31:43;;;;;;;;;;;;;;;11.47;100.00;95837.72;5075703;28;19931;-85
2021/11/01 07:16:05;;;;;;;;;;;;;;;11.96;100.00;95878.97;4914332;29;20034;-84
2021/11/01 07:18:41;;;;;;;;;;;;;;;11.95;100.00;95869.03;4898403;29;19949;-85
2021/11/01 07:21:40;;;;;;;;;;;;;;;11.78;100.00;95881.50;4914111;29;19927;-84
2021/11/01 08:43:50;;;;;;;;;;;;;;;11.06;100.00;96048.91;5073985;28;19930;-85
2021/11/01 09:03:16;;;;;;;;;;;;;;;10.83;100.00;96069.56;5088140;28;20434;-84
2021/11/01 09:05:41;;;;;;;;;;;;;;;11.09;100.00;96073.06;5063017;28;20372;-84
2021/11/01 09:26:54;;;;;;;;;;;;;;;10.91;100.00;96095.78;5094796;28;20432;-85
2021/11/01 09:42:44;;;;;;;;;;;;;;;11.12;100.00;96105.59;5072966;28;20298;-86
2021/11/01 09:45:12;;;;;;;;;;;;;;;11.13;100.00;96131.50;5039968;28;20013;-85
2021/11/01 09:47:43;;;;;;;;;;;;;;;11.15;100.00;96132.53;5072325;28;19924;-85
2021/11/01 09:50:11;;;;;;;;;;;;;;;11.06;100.00;96141.09;5094507;28;19966;-85
2021/11/01 09:52:43;;;;;;;;;;;;;;;10.99;100.00;96152.72;5041160;28;19954;-85
2021/11/01 10:00:51;;;;;;;;;;;;;;;11.05;100.00;96161.16;5076329;28;19924;-85
2021/11/01 10:03:18;;;;;;;;;;;;;;;10.78;100.00;96159.66;5075823;28;19924;-85
2021/11/01 10:05:55;;;;;;;;;;;;;;;10.55;100.00;96175.44;5076196;28;20023;-85
2021/11/01 10:08:23;;;;;;;;;;;;;;;10.83;100.00;96181.25;5059481;28;19928;-85
2021/11/01 10:10:52;;;;;;;;;;;;;;;10.44;100.00;96175.31;5056126;28;20013;-84
2021/11/01 10:13:20;;;;;;;;;;;;;;;10.90;100.00;96186.44;5073012;28;19932;-85
2021/11/01 10:18:47;;;;;;;;;;;;;;;10.73;100.00;96196.66;5075588;28;19924;-85
2021/11/01 10:21:16;;;;;;;;;;;;;;;10.56;100.00;96213.25;5076019;28;19935;-85
2021/11/01 10:23:50;;;;;;;;;;;;;;;10.38;100.00;96210.00;5079355;28;19924;-85
2021/11/01 10:26:19;;;;;;;;;;;;;;;10.76;100.00;96218.03;5055414;28;19929;-85
2021/11/01 10:28:50;;;;;;;;;;;;;;;10.46;100.00;96225.84;5092285;28;20395;-85
2021/11/01 10:31:24;;;;;;;;;;;;;;;10.40;100.00;96218.66;5093666;28;20015;-85
2021/11/01 10:34:06;;;;;;;;;;;;;;;10.67;100.00;96226.56;5055305;28;19932;-85
2021/11/01 10:36:40;;;;;;;;;;;;;;;10.67;100.00;96220.97;5069141;28;19968;-85
2021/11/01 10:39:22;;;;;;;;;;;;;;;10.92;100.00;96225.78;5075200;28;20375;-85
2021/11/01 10:42:14;;;;;;;;;;;;;;;10.33;100.00;96224.66;5058353;28;19932;-85
2021/11/01 10:45:06;;;;;;;;;;;;;;;10.77;100.00;96230.72;5093567;28;19924;-85
2021/11/01 10:59:26;;;;;;;;;;;;;;;10.41;100.00;96271.19;5051102;28;20366;-85
2021/11/01 11:13:25;;;;;;;;;;;;;;;10.55;100.00;96297.47;5074970;28;19924;-86
2021/11/01 11:15:57;;;;;;;;;;;;;;;10.54;100.00;96302.28;5058474;28;19924;-85
2021/11/01 11:26:35;;;;;;;;;;;;;;;10.40;100.00;96313.53;5069467;28;19924;-85
2021/11/01 11:32:11;;;;;;;;;;;;;;;10.88;100.00;96337.75;5092744;28;19924;-85
2021/11/01 11:48:48;;;;;;;;;;;;;;;10.53;100.00;96353.81;5010342;28;19936;-85
2021/11/01 11:51:15;;;;;;;;;;;;;;;10.63;100.00;96376.78;4977901;28;20297;-85
2021/11/01 11:53:51;;;;;;;;;;;;;;;10.62;100.00;96364.06;4994307;28;19930;-86
2021/11/01 11:56:25;;;;;;;;;;;;;;;10.43;100.00;96362.81;4993978;28;19926;-85
2021/11/01 11:58:56;;;;;;;;;;;;;;;10.33;100.00;96380.94;4993854;28;19925;-86
2021/11/01 12:01:43;;;;;;;;;;;;;;;10.74;100.00;96369.31;4993800;28;19983;-86
2021/11/01 12:04:26;;;;;;;;;;;;;;;10.87;100.00;96368.97;4993990;28;19925;-86
2021/11/01 12:06:59;;;;;;;;;;;;;;;10.86;100.00;96370.19;4978365;28;19932;-85
2021/11/01 12:09:32;;;;;;;;;;;;;;;10.59;100.00;96376.19;5010172;28;19937;-85
2021/11/01 12:17:22;;;;;;;;;;;;;;;10.98;100.00;96385.84;5046769;28;20440;-85
2021/11/01 12:19:53;;;;;;;;;;;;;;;10.89;100.00;96400.72;5058249;28;19997;-86
2021/11/01 12:22:27;;;;;;;;;;;;;;;10.91;100.00;96403.03;5060596;28;20077;-86
2021/11/01 12:24:56;;;;;;;;;;;;;;;11.10;100.00;96407.09;5111902;28;20291;-86
2021/11/01 12:27:26;;;;;;;;;;;;;;;11.48;100.00;96405.97;5078025;28;19924;-86
2021/11/01 12:29:53;;;;;;;;;;;;;;;11.42;100.00;96419.88;5057941;28;19925;-85
2021/11/01 12:32:21;;;;;;;;;;;;;;;10.79;100.00;96418.88;5063868;28;19924;-86
2021/11/01 12:34:55;;;;;;;;;;;;;;;10.80;100.00;96416.84;5057749;28;19935;-85
2021/11/01 12:37:28;;;;;;;;;;;;;;;10.73;100.00;96415.25;5077333;28;19924;-85
2021/11/01 12:40:25;;;;;;;;;;;;;;;10.99;100.00;96410.47;5095844;28;19924;-86
2021/11/01 12:44:12;;;;;;;;;;;;;;;10.93;100.00;96415.22;5056302;28;19977;-86
2021/11/01 12:59:40;;;;;;;;;;;;;;;11.38;100.00;96438.91;5073212;28;19924;-86
2021/11/01 13:02:15;;;;;;;;;;;;;;;11.19;100.00;96429.28;5077573;28;19960;-85
2021/11/01 13:04:46;;;;;;;;;;;;;;;11.64;100.00;96447.34;5077367;28;19924;-85
2021/11/01 13:07:31;;;;;;;;;;;;;;;11.38;100.00;96443.72;5077163;28;19974;-85
2021/11/01 13:10:21;;;;;;;;;;;;;;;11.34;100.00;96438.34;5077047;28;19947;-85
2021/11/01 13:18:21;;;;;;;;;;;;;;;11.81;100.00;96449.06;5077026;28;20456;-86
2021/11/01 13:21:01;;;;;;;;;;;;;;;11.96;100.00;96458.09;5110788;28;19928;-85
2021/11/01 13:23:35;;;;;;;;;;;;;;;11.51;100.00;96449.72;5060367;28;19928;-85
2021/11/01 13:26:24;;;;;;;;;;;;;;;11.84;100.00;96456.47;5077135;28;19963;-85
2021/11/01 13:29:10;;;;;;;;;;;;;;;11.62;100.00;96461.00;5077261;28;19924;-85
2021/11/01 13:34:49;;;;;;;;;;;;;;;11.57;100.00;96479.25;5056690;28;20333;-85
2021/11/01 13:37:22;;;;;;;;;;;;;;;11.64;100.00;96476.09;5075536;28;19931;-85
2021/11/01 13:40:08;;;;;;;;;;;;;;;11.19;100.00;96474.00;5076683;28;19928;-85
2021/11/01 13:42:39;;;;;;;;;;;;;;;11.59;100.00;96479.53;5060249;28;19924;-86
2021/11/01 13:45:11;;;;;;;;;;;;;;;11.79;100.00;96482.34;5056694;28;19924;-85
2021/11/01 13:47:42;;;;;;;;;;;;;;;11.96;100.00;96469.31;5076832;28;19973;-85
2021/11/01 13:50:10;;;;;;;;;;;;;;;12.00;100.00;96480.25;5076560;28;20284;-86
2021/11/01 13:52:39;;;;;;;;;;;;;;;12.10;100.00;96496.38;5076731;28;19924;-85
2021/11/01 13:57:46;;;;;;;;;;;;;;;12.23;100.00;96482.78;5070556;28;19930;-85
2021/11/01 14:00:28;;;;;;;;;;;;;;;11.49;100.00;96497.75;5076649;28;20028;-85
2021/11/01 14:14:22;;;;;;;;;;;;;;;11.21;100.00;96521.03;5005311;28;20351;-85
2021/11/01 14:28:02;;;;;;;;;;;;;;;11.67;100.00;96513.47;4967056;28;19930;-85
2021/11/01 14:30:58;;;;;;;;;;;;;;;11.95;100.00;96528.56;4959783;28;19925;-85
2021/11/01 14:36:18;;;;;;;;;;;;;;;12.22;100.00;96520.41;4983964;28;20422;-85
2021/11/01 15:12:22;;;;;;;;;;;;;;;12.72;100.00;96563.63;5038139;28;20099;-85
2021/11/01 15:14:47;;;;;;;;;;;;;;;12.86;100.00;96567.53;5035438;28;19924;-85
2021/11/01 16:17:05;;;;;;;;;;;;;;;12.33;100.00;96615.72;5061416;28;19924;-85
2021/11/01 16:19:44;;;;;;;;;;;;;;;12.63;100.00;96636.63;5083438;28;20023;-85
2021/11/01 16:22:12;;;;;;;;;;;;;;;13.16;100.00;96636.09;5082606;28;19998;-85
2021/11/01 16:24:39;;;;;;;;;;;;;;;12.96;100.00;96632.59;5058245;28;19951;-85
2021/11/01 16:27:08;;;;;;;;;;;;;;;13.37;100.00;96642.38;5059702;28;19924;-85
2021/11/01 16:34:54;;;;;;;;;;;;;;;12.34;100.00;96656.44;5094612;28;20432;-84
2021/11/01 16:38:01;;;;;;;;;;;;;;;12.01;100.00;96660.91;5061601;28;19931;-84
2021/11/01 16:40:15;;;;;;;;;;;;;;;12.00;100.00;96665.72;5035843;28;19936;-85
2021/11/01 16:42:44;;;;;;;;;;;;;;;12.46;100.00;96666.50;5055339;28;19929;-84
2021/11/01 16:45:17;;;;;;;;;;;;;;;12.51;100.00;96660.19;5017860;28;19956;-85
2021/11/01 16:47:45;;;;;;;;;;;;;;;12.52;100.00;96656.16;5036957;28;19975;-84
2021/11/01 16:50:17;;;;;;;;;;;;;;;12.27;100.00;96659.66;5054413;28;19929;-84
2021/11/01 16:52:46;;;;;;;;;;;;;;;11.98;100.00;96656.28;5054091;28;19937;-84
2021/11/01 16:55:19;;;;;;;;;;;;;;;12.40;100.00;96653.72;5054377;28;20008;-85
2021/11/01 16:57:50;;;;;;;;;;;;;;;12.35;100.00;96660.78;5018753;28;19925;-84
2021/11/01 17:00:27;;;;;;;;;;;;;;;12.11;100.00;96671.44;5018030;28;19929;-84
2021/11/01 17:03:08;;;;;;;;;;;;;;;11.57;100.00;96689.00;5019365;28;19925;-84
2021/11/01 17:24:38;;;;;;;;;;;;;;;11.96;100.00;96695.94;5035948;28;19924;-84
2021/11/01 17:27:28;;;;;;;;;;;;;;;11.89;100.00;96706.78;5019004;28;19924;-84
2021/11/01 18:37:25;;;;;;;;;;;;;;;12.51;100.00;96789.00;5056583;28;19925;-86
2021/11/01 18:45:15;;;;;;;;;;;;;;;12.65;100.00;96788.19;5038746;28;19955;-85
2021/11/01 18:53:31;;;;;;;;;;;;;;;11.40;100.00;96813.81;5004896;28;19924;-85
2021/11/01 18:55:59;;;;;;;;;;;;;;;11.42;100.00;96822.47;5034077;28;20346;-85
2021/11/01 18:58:27;;;;;;;;;;;;;;;11.97;100.00;96812.19;5032169;28;19932;-85
2021/11/01 19:00:56;;;;;;;;;;;;;;;11.14;100.00;96823.22;5034037;28;20339;-85
2021/11/01 19:03:27;;;;;;;;;;;;;;;11.19;100.00;96820.53;5033983;28;19984;-86
2021/11/01 20:04:00;;;;;;;;;;;;;;;9.61;100.00;96889.91;4996993;28;20374;-85
2021/11/01 20:06:49;;;;;;;;;;;;;;;9.69;100.00;96899.50;4999314;28;19976;-85
2021/11/01 20:09:34;;;;;;;;;;;;;;;9.60;100.00;96898.75;5010153;28;19932;-85
2021/11/01 20:12:28;;;;;;;;;;;;;;;9.50;100.00;96903.56;5013585;28;20347;-85
2021/11/01 21:27:03;;;;;;;;;;;;;;;12.07;100.00;96922.00;5073706;28;19931;-85
2021/11/01 21:29:31;;;;;;;;;;;;;;;11.79;100.00;96924.34;5073482;28;20039;-85
2021/11/01 21:32:01;;;;;;;;;;;;;;;12.13;100.00;96926.41;5091012;28;19932;-85
2021/11/01 21:35:13;;;;;;;;;;;;;;;11.70;100.00;96926.44;5057149;28;19925;-85
2021/11/01 21:37:18;;;;;;;;;;;;;;;11.76;100.00;96928.09;5093207;28;19932;-85
2021/11/01 21:39:46;;;;;;;;;;;;;;;11.76;100.00;96930.91;5021370;28;20060;-85
2021/11/01 21:42:13;;;;;;;;;;;;;;;11.48;100.00;96937.97;5036639;28;19928;-86
2021/11/01 21:44:40;;;;;;;;;;;;;;;11.68;100.00;96943.72;5053265;28;19958;-85
2021/11/01 21:47:09;;;;;;;;;;;;;;;12.21;100.00;96933.19;5059456;28;20016;-85
2021/11/01 21:49:36;;;;;;;;;;;;;;;12.29;100.00;96928.72;5073132;28;19931;-85
2021/11/01 21:52:04;;;;;;;;;;;;;;;12.16;100.00;96930.31;5056489;28;19931;-85
2021/11/01 21:54:42;;;;;;;;;;;;;;;12.10;100.00;96938.59;5056274;28;19932;-85
2021/11/01 21:57:57;;;;;;;;;;;;;;;12.36;100.00;96933.91;5074172;28;20019;-85
2021/11/01 22:21:38;;;;;;;;;;;;;;;11.97;100.00;96940.94;5072489;28;19924;-85
2021/11/01 22:24:11;;;;;;;;;;;;;;;11.99;100.00;96948.84;5055662;28;19939;-85
2021/11/01 22:27:07;;;;;;;;;;;;;;;12.08;100.00;96951.53;5055819;28;20218;-85
2021/11/01 22:32:44;;;;;;;;;;;;;;;11.98;100.00;96942.47;5072490;28;19925;-85
2021/11/01 22:38:28;;;;;;;;;;;;;;;11.96;100.00;96939.41;5072850;28;19925;-85
2021/11/01 22:40:53;;;;;;;;;;;;;;;11.32;100.00;96934.84;5089045;28;19935;-85
2021/11/01 22:57:12;;;;;;;;;;;;;;;12.03;100.00;96950.19;5054446;28;20023;-85
2021/11/01 22:59:39;;;;;;;;;;;;;;;11.71;100.00;96939.94;5055378;28;19925;-85
2021/11/01 23:02:07;;;;;;;;;;;;;;;11.30;100.00;96949.31;5051756;28;19931;-85
2021/11/01 23:04:53;;;;;;;;;;;;;;;11.43;100.00;96941.44;5035080;28;19925;-85
2021/11/01 23:32:33;;;;;;;;;;;;;;;10.97;100.00;96957.03;4985815;28;19948;-86
2021/11/01 23:35:00;;;;;;;;;;;;;;;10.95;100.00;96962.31;4998139;28;19964;-86
2021/11/01 23:37:27;;;;;;;;;;;;;;;11.16;100.00;96961.25;5013811;28;19932;-85
2021/11/01 23:39:54;;;;;;;;;;;;;;;11.07;100.00;96961.31;5027454;28;19925;-86
2021/11/01 23:42:21;;;;;;;;;;;;;;;11.08;100.00;96974.03;4994149;28;20289;-86
2021/11/01 23:44:53;;;;;;;;;;;;;;;10.83;100.00;96966.09;4977719;28;20409;-86
2021/11/01 23:47:22;;;;;;;;;;;;;;;11.05;100.00;96963.03;5001851;28;20357;-86
2021/11/01 23:49:49;;;;;;;;;;;;;;;11.28;100.00;96974.19;5013162;28;19936;-86
2021/11/01 23:52:17;;;;;;;;;;;;;;;11.12;100.00;96966.22;5013726;28;19925;-85
2021/11/01 23:54:44;;;;;;;;;;;;;;;11.63;100.00;96966.00;5004285;28;19931;-86
2021/11/01 23:57:14;;;;;;;;;;;;;;;11.49;100.00;96967.50;5014414;28;20438;-86
2021/11/01 23:59:43;;;;;;;;;;;;;;;11.73;100.00;96973.81;4986193;28;19929;-86
